KMQI

Dare County Regional Airport

Manteo, North Carolina, USA
METAR KMQI 140420Z AUTO 03017KT 10SM BKN020 OVC095 12/07 A3020 RMK AO2 T01150073
Observed Flight Rules
Nov-14 @ 04:20 UTC (29 minutes ago) Marginal Visual Flight Rules
Wind Visibility Clouds
30° at 17 knots 10 miles
  • Broken at 2,000' AGL
  • Overcast at 9,500' AGL
Temperatures Readings
Current 12°C / 54°F
Dewpoint 7°C / 45°F
Humidity 72%
Altimeter 30.2" Hg
Pressure 1023 hPa
Elevation 4
METAR KMQI 140420Z AUTO 03017KT 10SM BKN020 OVC095 12/07 A3020 RMK AO2 T01150073
Observed Flight Rules
Nov-14 @ 04:20 UTC
(29 minutes ago)
MVFR
Wind Visibility
30° at 17 knots 10 miles
Clouds
  • Broken at 2,000' AGL
  • Overcast at 9,500' AGL
Temperature Dewpoint
12°C / 54°F 7°C / 45°F
Humidity Altimeter Pressure
72% 30.2" Hg 1023 hPa